createdAt,value
2019-04-04T00:00:19.064Z,7.62
2019-04-04T00:01:19.054Z,7.62
2019-04-04T00:02:19.686Z,7.62
2019-04-04T00:03:21.235Z,7.67
2019-04-04T00:04:21.774Z,7.78
2019-04-04T00:05:19.014Z,7.93
2019-04-04T00:06:19.005Z,8.02
2019-04-04T00:07:19.273Z,8.02
2019-04-04T00:08:19.614Z,7.97
2019-04-04T00:09:19.032Z,7.97
2019-04-04T00:10:19.625Z,8.00
2019-04-04T00:11:18.944Z,8.03
2019-04-04T00:12:18.933Z,8.02
2019-04-04T00:13:18.923Z,8.02
2019-04-04T00:14:19.207Z,8.03
2019-04-04T00:15:18.944Z,8.03
2019-04-04T00:16:18.898Z,8.07
2019-04-04T00:17:18.883Z,8.07
2019-04-04T00:18:18.873Z,8.03
2019-04-04T00:19:18.865Z,7.99
2019-04-04T00:20:18.853Z,7.99
2019-04-04T00:21:19.162Z,7.97
2019-04-04T00:22:18.832Z,7.99
2019-04-04T00:23:18.822Z,8.04
2019-04-04T00:24:18.811Z,8.12
2019-04-04T00:25:18.802Z,8.18
2019-04-04T00:26:18.792Z,8.18
2019-04-04T00:27:20.579Z,8.20
2019-04-04T00:28:19.162Z,8.20
2019-04-04T00:29:18.771Z,8.17
2019-04-04T00:30:18.749Z,8.14
2019-04-04T00:31:19.620Z,8.11
2019-04-04T00:32:20.688Z,8.10
2019-04-04T00:33:18.761Z,8.07
2019-04-04T00:34:18.702Z,8.03
2019-04-04T00:35:18.691Z,8.02
2019-04-04T00:36:18.681Z,8.00
2019-04-04T00:37:18.671Z,7.93
2019-04-04T00:38:18.666Z,7.94
2019-04-04T00:39:18.699Z,7.89
2019-04-04T00:40:18.921Z,7.87
2019-04-04T00:41:18.637Z,7.81
2019-04-04T00:42:18.631Z,7.74
2019-04-04T00:43:20.857Z,7.63
2019-04-04T00:44:18.608Z,7.60
2019-04-04T00:45:18.970Z,7.55
2019-04-04T00:46:18.670Z,7.50
2019-04-04T00:47:18.561Z,7.50
2019-04-04T00:48:18.561Z,7.50
2019-04-04T00:49:18.549Z,7.50
2019-04-04T00:50:18.540Z,7.49
2019-04-04T00:51:18.580Z,7.49
2019-04-04T00:52:18.909Z,7.49
2019-04-04T00:53:18.499Z,7.47
2019-04-04T00:54:18.499Z,7.49
2019-04-04T00:55:18.478Z,7.49
2019-04-04T00:56:18.807Z,7.55
2019-04-04T00:57:18.800Z,7.56
2019-04-04T00:58:18.947Z,7.59
2019-04-04T00:59:18.728Z,7.59
2019-04-04T01:00:18.429Z,7.56
2019-04-04T01:01:18.464Z,7.52
2019-04-04T01:02:18.442Z,7.49
2019-04-04T01:03:18.485Z,7.42
2019-04-04T01:04:18.418Z,7.38
2019-04-04T01:05:18.377Z,7.32
2019-04-04T01:06:18.787Z,7.34
2019-04-04T01:07:18.397Z,7.34
2019-04-04T01:08:18.345Z,7.35
2019-04-04T01:09:18.375Z,7.38
2019-04-04T01:10:18.938Z,7.44
2019-04-04T01:11:20.320Z,7.44
2019-04-04T01:12:21.473Z,7.45
2019-04-04T01:13:18.616Z,7.49
2019-04-04T01:14:18.276Z,7.52
2019-04-04T01:15:18.314Z,7.56
2019-04-04T01:16:18.261Z,7.60
2019-04-04T01:17:18.246Z,7.60
2019-04-04T01:18:18.237Z,7.63
2019-04-04T01:19:18.227Z,7.60
2019-04-04T01:20:20.413Z,7.58
2019-04-04T01:21:18.265Z,7.55
2019-04-04T01:22:18.192Z,7.52
2019-04-04T01:23:18.186Z,7.52
2019-04-04T01:24:18.173Z,7.52
2019-04-04T01:25:18.165Z,7.45
2019-04-04T01:26:18.154Z,7.37
2019-04-04T01:27:18.455Z,7.34
2019-04-04T01:28:18.134Z,7.34
2019-04-04T01:29:18.126Z,7.35
2019-04-04T01:30:18.105Z,7.37
2019-04-04T01:31:18.096Z,7.34
2019-04-04T01:32:18.085Z,7.31
2019-04-04T01:33:19.699Z,7.19
2019-04-04T01:34:18.799Z,7.17
2019-04-04T01:35:18.054Z,7.17
2019-04-04T01:36:18.044Z,7.16
2019-04-04T01:37:18.034Z,7.20
2019-04-04T01:38:18.022Z,7.17
2019-04-04T01:39:18.091Z,7.17
2019-04-04T01:40:17.996Z,7.17
2019-04-04T01:41:18.294Z,7.19
2019-04-04T01:42:17.992Z,7.15
2019-04-04T01:43:18.403Z,7.09
2019-04-04T01:44:17.968Z,7.08
2019-04-04T01:45:17.983Z,7.09
2019-04-04T01:46:17.933Z,7.12
2019-04-04T01:47:17.931Z,7.05
2019-04-04T01:48:18.850Z,6.98
2019-04-04T01:49:19.138Z,6.97
2019-04-04T01:50:18.658Z,6.91
2019-04-04T01:51:17.933Z,6.84
2019-04-04T01:52:17.941Z,6.81
2019-04-04T01:53:17.902Z,6.79
2019-04-04T01:54:17.852Z,6.79
2019-04-04T01:55:18.969Z,6.80
2019-04-04T01:56:17.835Z,6.80
2019-04-04T01:57:17.902Z,6.83
2019-04-04T01:58:17.813Z,6.81
2019-04-04T01:59:17.801Z,6.77
2019-04-04T02:02:07.697Z,6.71
2019-04-04T02:03:07.616Z,6.73
2019-04-04T02:04:07.627Z,6.77
2019-04-04T02:05:07.597Z,6.76
2019-04-04T02:06:07.596Z,6.80
2019-04-04T02:07:07.575Z,6.77
2019-04-04T02:08:07.876Z,6.77
2019-04-04T02:09:07.556Z,6.73
2019-04-04T02:10:07.556Z,6.72
2019-04-04T02:11:07.546Z,6.72
2019-04-04T02:12:07.991Z,6.71
2019-04-04T02:13:09.502Z,6.69
2019-04-04T02:14:07.536Z,6.68
2019-04-04T02:15:07.774Z,6.62
2019-04-04T02:16:07.498Z,6.62
2019-04-04T02:17:07.467Z,6.61
2019-04-04T02:18:07.462Z,6.59
2019-04-04T02:19:07.455Z,6.56
2019-04-04T02:20:07.475Z,6.58
2019-04-04T02:21:07.437Z,6.58
2019-04-04T02:22:07.424Z,6.59
2019-04-04T02:23:07.406Z,6.58
2019-04-04T02:24:07.404Z,6.56
2019-04-04T02:25:07.411Z,6.56
2019-04-04T02:26:07.412Z,6.58
2019-04-04T02:27:07.734Z,6.56
2019-04-04T02:28:08.932Z,6.59
2019-04-04T02:29:09.030Z,6.65
2019-04-04T02:30:07.334Z,6.69
2019-04-04T02:31:07.330Z,6.73
2019-04-04T02:32:07.352Z,6.81
2019-04-04T02:33:07.308Z,6.83
2019-04-04T02:34:07.614Z,6.87
2019-04-04T02:35:10.004Z,6.91
2019-04-04T02:36:07.283Z,6.94
2019-04-04T02:37:07.274Z,6.94
2019-04-04T02:38:07.303Z,6.94
2019-04-04T02:39:07.249Z,6.91
2019-04-04T02:40:08.968Z,6.89
2019-04-04T02:41:07.226Z,6.90
2019-04-04T02:42:08.833Z,6.89
2019-04-04T02:43:07.204Z,6.87
2019-04-04T02:44:07.230Z,6.87
2019-04-04T02:45:07.183Z,6.83
2019-04-04T02:46:11.198Z,6.80
2019-04-04T02:47:07.211Z,6.79
2019-04-04T02:48:07.152Z,6.73
2019-04-04T02:49:07.146Z,6.72
2019-04-04T02:50:07.161Z,6.76
2019-04-04T02:51:08.102Z,6.79
2019-04-04T02:52:07.128Z,6.80
2019-04-04T02:53:07.402Z,6.86
2019-04-04T02:54:07.089Z,6.90
2019-04-04T02:55:07.079Z,6.89
2019-04-04T02:56:07.921Z,6.90
2019-04-04T02:57:09.176Z,6.90
2019-04-04T02:58:07.047Z,6.86
2019-04-04T02:59:07.038Z,6.81
2019-04-04T03:00:07.309Z,6.76
2019-04-04T03:01:07.020Z,6.66
2019-04-04T03:02:07.039Z,6.63
2019-04-04T03:03:09.266Z,6.65
2019-04-04T03:04:06.979Z,6.68
2019-04-04T03:05:06.978Z,6.71
2019-04-04T03:06:06.975Z,6.77
2019-04-04T03:07:07.307Z,6.80
2019-04-04T03:08:06.985Z,6.83
2019-04-04T03:09:10.148Z,6.83
2019-04-04T03:10:06.931Z,6.83
2019-04-04T03:11:06.930Z,6.84
2019-04-04T03:12:06.898Z,6.83
2019-04-04T03:13:06.891Z,6.83
2019-04-04T03:14:07.219Z,6.83
2019-04-04T03:15:09.129Z,6.81
2019-04-04T03:16:06.857Z,6.83
2019-04-04T03:17:06.856Z,6.83
2019-04-04T03:18:06.853Z,6.81
2019-04-04T03:19:09.989Z,6.81
2019-04-04T03:20:06.861Z,6.81
2019-04-04T03:21:07.104Z,6.77
2019-04-04T03:22:06.803Z,6.77
2019-04-04T03:23:06.817Z,6.76
2019-04-04T03:24:07.359Z,6.73
2019-04-04T03:25:06.778Z,6.72
2019-04-04T03:26:06.786Z,6.72
2019-04-04T03:27:06.765Z,6.73
2019-04-04T03:28:07.026Z,6.76
2019-04-04T03:29:10.191Z,6.73
2019-04-04T03:30:13.206Z,6.73
2019-04-04T03:31:07.996Z,6.69
2019-04-04T03:32:13.544Z,6.72
2019-04-04T03:33:07.687Z,6.65
2019-04-04T03:34:10.955Z,6.56
2019-04-04T03:35:07.965Z,6.47
2019-04-04T03:36:06.665Z,6.30
2019-04-04T03:37:10.165Z,6.16
2019-04-04T03:38:07.633Z,6.06
2019-04-04T03:39:06.635Z,5.95
2019-04-04T03:40:06.613Z,5.85
2019-04-04T03:41:06.668Z,5.81
2019-04-04T03:42:08.080Z,5.74
2019-04-04T03:43:06.628Z,5.71
2019-04-04T03:44:06.576Z,5.70
2019-04-04T03:45:06.719Z,5.63
2019-04-04T03:46:06.553Z,5.60
2019-04-04T03:47:09.867Z,5.57
2019-04-04T03:48:06.537Z,5.57
2019-04-04T03:49:06.853Z,5.63
2019-04-04T03:50:06.531Z,5.66
2019-04-04T03:51:06.503Z,5.66
2019-04-04T03:52:10.228Z,5.60
2019-04-04T03:53:06.480Z,5.64
2019-04-04T03:54:06.474Z,5.64
2019-04-04T03:55:06.493Z,5.64
2019-04-04T03:56:06.767Z,5.56
2019-04-04T03:57:10.919Z,5.53
2019-04-04T03:58:07.437Z,5.53
2019-04-04T03:59:06.420Z,5.53
2019-04-04T04:00:07.486Z,5.56
2019-04-04T04:01:06.425Z,5.57
2019-04-04T04:02:06.681Z,5.56
2019-04-04T04:03:06.375Z,5.59
2019-04-04T04:04:06.375Z,5.60
2019-04-04T04:05:06.350Z,5.59
2019-04-04T04:06:09.014Z,5.57
2019-04-04T04:07:06.382Z,5.63
2019-04-04T04:08:06.321Z,5.68
2019-04-04T04:09:06.634Z,5.71
2019-04-04T04:10:06.310Z,5.70
2019-04-04T04:11:06.315Z,5.66
2019-04-04T04:12:10.191Z,5.70
2019-04-04T04:13:07.299Z,5.75
2019-04-04T04:14:06.266Z,5.83
2019-04-04T04:15:06.255Z,5.89
2019-04-04T04:16:06.540Z,5.93
2019-04-04T04:17:06.231Z,5.92
2019-04-04T04:18:06.219Z,5.95
2019-04-04T04:19:06.244Z,5.98
2019-04-04T04:20:06.782Z,6.01
2019-04-04T04:21:09.794Z,6.09
2019-04-04T04:22:06.178Z,6.13
2019-04-04T04:23:06.175Z,6.16
2019-04-04T04:24:06.190Z,6.19
2019-04-04T04:25:06.281Z,6.26
2019-04-04T04:26:09.496Z,6.25
2019-04-04T04:27:06.130Z,6.26
2019-04-04T04:28:06.151Z,6.30
2019-04-04T04:29:06.398Z,6.35
2019-04-04T04:30:07.432Z,6.36
2019-04-04T04:31:06.117Z,6.41
2019-04-04T04:32:06.076Z,6.43
2019-04-04T04:33:06.066Z,6.44
2019-04-04T04:34:06.080Z,6.46
2019-04-04T04:35:08.633Z,6.46
2019-04-04T04:36:09.444Z,6.46
2019-04-04T04:37:06.056Z,6.50
2019-04-04T04:38:06.029Z,6.50
2019-04-04T04:39:06.066Z,6.50
2019-04-04T04:40:05.995Z,6.46
2019-04-04T04:41:05.985Z,6.40
2019-04-04T04:42:05.975Z,6.26
2019-04-04T04:43:06.316Z,6.09
2019-04-04T04:44:06.625Z,5.88
2019-04-04T04:45:05.945Z,5.73
2019-04-04T04:46:06.719Z,5.60
2019-04-04T04:47:05.922Z,5.52
2019-04-04T04:48:05.925Z,5.48
2019-04-04T04:49:05.934Z,5.43
2019-04-04T04:50:08.516Z,5.41
2019-04-04T04:51:05.884Z,5.43
2019-04-04T04:52:05.876Z,5.46
2019-04-04T04:53:05.955Z,5.52
2019-04-04T04:54:05.855Z,5.49
2019-04-04T04:55:06.156Z,5.49
2019-04-04T04:56:05.833Z,5.49
2019-04-04T04:57:05.824Z,5.49
2019-04-04T04:58:09.956Z,5.50
2019-04-04T04:59:05.803Z,5.53
2019-04-04T05:00:05.789Z,5.53
2019-04-04T05:01:05.822Z,5.52
2019-04-04T05:02:05.771Z,5.48
2019-04-04T05:03:05.771Z,5.45
2019-04-04T05:04:05.754Z,5.43
2019-04-04T05:05:05.751Z,5.45
2019-04-04T05:06:05.730Z,5.46
2019-04-04T05:07:07.345Z,5.50
2019-04-04T05:08:05.709Z,5.57
2019-04-04T05:09:05.702Z,5.66
2019-04-04T05:10:05.681Z,5.74
2019-04-04T05:11:05.678Z,5.77
2019-04-04T05:12:05.669Z,5.83
2019-04-04T05:13:06.001Z,5.88
2019-04-04T05:14:05.651Z,5.92
2019-04-04T05:15:05.700Z,6.00
2019-04-04T05:16:08.767Z,6.04
2019-04-04T05:17:05.635Z,6.11
2019-04-04T05:18:05.602Z,6.14
2019-04-04T05:19:05.782Z,6.14
2019-04-04T05:20:06.200Z,6.19
2019-04-04T05:21:05.588Z,6.25
2019-04-04T05:22:08.822Z,6.26
2019-04-04T05:23:05.550Z,6.29
2019-04-04T05:24:05.568Z,6.30
2019-04-04T05:25:08.475Z,6.30
2019-04-04T05:26:05.561Z,6.26
2019-04-04T05:27:06.655Z,6.25
2019-04-04T05:28:06.302Z,6.28
2019-04-04T05:29:05.515Z,6.19
2019-04-04T05:30:08.199Z,6.14
2019-04-04T05:31:05.511Z,6.14
2019-04-04T05:32:06.010Z,6.11
2019-04-04T05:33:05.458Z,6.07
2019-04-04T05:34:05.497Z,5.98
2019-04-04T05:35:05.440Z,5.86
2019-04-04T05:36:06.030Z,5.77
2019-04-04T05:37:07.301Z,5.74
2019-04-04T05:38:07.711Z,5.73
2019-04-04T05:39:05.389Z,5.68
2019-04-04T05:40:06.197Z,5.70
2019-04-04T05:41:05.564Z,5.70
2019-04-04T05:42:05.372Z,5.64
2019-04-04T05:43:05.566Z,5.64
2019-04-04T05:44:09.022Z,5.70
2019-04-04T05:45:05.327Z,5.70
2019-04-04T05:46:05.417Z,5.71
2019-04-04T05:47:05.597Z,5.74
2019-04-04T05:48:05.344Z,5.74
2019-04-04T05:49:07.756Z,5.75
2019-04-04T05:50:05.437Z,5.74
2019-04-04T05:51:05.438Z,5.81
2019-04-04T05:52:05.317Z,5.85
2019-04-04T05:53:05.267Z,5.91
2019-04-04T05:54:07.612Z,5.92
2019-04-04T05:55:05.305Z,5.95
2019-04-04T05:56:06.460Z,5.96
2019-04-04T05:57:05.198Z,5.96
2019-04-04T05:58:05.191Z,5.98
2019-04-04T05:59:05.190Z,6.04
2019-04-04T06:00:05.173Z,6.04
2019-04-04T06:01:05.672Z,6.01
2019-04-04T06:02:05.157Z,6.01
2019-04-04T06:03:05.197Z,6.03
2019-04-04T06:04:05.160Z,6.04
2019-04-04T06:05:05.136Z,6.09
2019-04-04T06:06:05.104Z,6.09
2019-04-04T06:07:05.149Z,6.10
2019-04-04T06:08:07.723Z,6.13
2019-04-04T06:09:05.127Z,6.19
2019-04-04T06:10:05.085Z,6.11
2019-04-04T06:11:05.057Z,6.06
2019-04-04T06:12:05.055Z,6.01
2019-04-04T06:13:05.126Z,6.01
2019-04-04T06:14:05.031Z,5.98
2019-04-04T06:15:05.020Z,6.01
2019-04-04T06:16:05.129Z,6.01
2019-04-04T06:17:07.212Z,5.95
2019-04-04T06:18:05.005Z,5.92
2019-04-04T06:19:05.443Z,5.96
2019-04-04T06:20:05.310Z,6.01
2019-04-04T06:21:04.961Z,5.98
2019-04-04T06:22:04.951Z,5.98
2019-04-04T06:23:04.930Z,6.01
2019-04-04T06:24:04.941Z,6.07
2019-04-04T06:25:04.940Z,6.07
2019-04-04T06:26:07.406Z,6.06
2019-04-04T06:27:04.891Z,6.07
2019-04-04T06:28:04.879Z,6.10
2019-04-04T06:29:05.806Z,6.14
2019-04-04T06:30:04.871Z,6.19
2019-04-04T06:31:05.149Z,6.19
2019-04-04T06:32:05.130Z,6.16
2019-04-04T06:33:05.122Z,6.10
2019-04-04T06:34:05.936Z,6.11
2019-04-04T06:35:04.809Z,6.10
2019-04-04T06:36:04.798Z,6.10
2019-04-04T06:37:04.849Z,6.03
2019-04-04T06:38:05.292Z,6.03
2019-04-04T06:39:04.769Z,6.06
2019-04-04T06:40:04.758Z,6.10
2019-04-04T06:41:04.757Z,6.07
2019-04-04T06:42:04.738Z,6.09
2019-04-04T06:43:10.760Z,6.10
2019-04-04T06:44:05.715Z,6.13
2019-04-04T06:45:05.105Z,6.13
2019-04-04T06:46:04.698Z,6.16
2019-04-04T06:47:04.687Z,6.25
2019-04-04T06:48:04.677Z,6.26
2019-04-04T06:49:05.118Z,6.22
2019-04-04T06:50:07.142Z,6.22
2019-04-04T06:51:04.646Z,6.26
2019-04-04T06:52:04.932Z,6.32
2019-04-04T06:53:04.625Z,6.36
2019-04-04T06:54:04.625Z,6.33
2019-04-04T06:55:04.628Z,6.33
2019-04-04T06:56:04.595Z,6.33
2019-04-04T06:57:04.874Z,6.38
2019-04-04T06:58:08.196Z,6.38
2019-04-04T06:59:04.570Z,6.43
2019-04-04T07:00:04.643Z,6.29
2019-04-04T07:01:04.575Z,6.28
2019-04-04T07:02:05.328Z,6.29
2019-04-04T07:03:04.548Z,6.25
2019-04-04T07:04:04.514Z,6.28
2019-04-04T07:05:06.313Z,6.35
2019-04-04T07:06:04.503Z,6.41
2019-04-04T07:07:04.808Z,6.43
2019-04-04T07:08:04.482Z,6.46
2019-04-04T07:09:04.485Z,6.47
2019-04-04T07:10:04.494Z,6.54
2019-04-04T07:11:15.501Z,6.58
2019-04-04T07:12:06.780Z,6.59
2019-04-04T07:13:14.770Z,6.61
2019-04-04T07:14:05.417Z,6.62
2019-04-04T07:15:04.411Z,6.69
2019-04-04T07:16:07.798Z,6.71
2019-04-04T07:17:06.279Z,6.62
2019-04-04T07:18:04.409Z,6.62
2019-04-04T07:19:07.751Z,6.59
2019-04-04T07:20:05.055Z,6.53
2019-04-04T07:21:04.337Z,6.58
2019-04-04T07:22:05.074Z,6.63
2019-04-04T07:23:04.633Z,6.72
2019-04-04T07:24:05.581Z,6.79
2019-04-04T07:25:06.640Z,6.72
2019-04-04T07:26:05.062Z,6.54
2019-04-04T07:27:04.285Z,6.46
2019-04-04T07:28:04.266Z,6.40
2019-04-04T07:29:04.261Z,6.38
2019-04-04T07:30:04.271Z,6.36
2019-04-04T07:31:04.231Z,6.38
2019-04-04T07:32:04.229Z,6.38
2019-04-04T07:33:05.122Z,6.36
2019-04-04T07:34:05.098Z,6.36
2019-04-04T07:35:04.557Z,6.33
2019-04-04T07:36:04.211Z,6.38
2019-04-04T07:37:04.169Z,6.43
2019-04-04T07:38:04.161Z,6.43
2019-04-04T07:39:05.061Z,6.43
2019-04-04T07:40:04.511Z,6.44
2019-04-04T07:41:04.141Z,6.44
2019-04-04T07:42:04.658Z,6.50
2019-04-04T07:43:04.108Z,6.56
2019-04-04T07:44:04.651Z,6.58
2019-04-04T07:45:04.267Z,6.65
2019-04-04T07:46:15.552Z,6.71
2019-04-04T07:47:06.063Z,6.79
2019-04-04T07:48:04.626Z,6.86
2019-04-04T07:49:04.069Z,6.94
2019-04-04T07:50:04.038Z,6.98
2019-04-04T07:51:04.050Z,7.05
2019-04-04T07:52:04.998Z,7.12
2019-04-04T07:53:05.024Z,7.17
2019-04-04T07:54:05.224Z,7.16
2019-04-04T07:55:04.409Z,7.20
2019-04-04T07:56:03.967Z,7.17
2019-04-04T07:57:03.964Z,7.17
2019-04-04T07:58:03.954Z,7.22
2019-04-04T07:59:03.971Z,7.22
2019-04-04T08:00:04.087Z,7.19
2019-04-04T08:01:03.930Z,7.13
2019-04-04T08:02:03.908Z,7.04
2019-04-04T08:03:03.906Z,7.01
2019-04-04T08:04:06.491Z,7.07
2019-04-04T08:05:04.125Z,7.16
2019-04-04T08:06:04.175Z,7.24
2019-04-04T08:07:04.077Z,7.32
2019-04-04T08:08:04.316Z,7.40
2019-04-04T08:09:04.118Z,7.44
2019-04-04T08:10:03.840Z,7.45
2019-04-04T08:11:03.815Z,7.44
2019-04-04T08:12:03.859Z,7.49
2019-04-04T08:13:03.806Z,7.55
2019-04-04T08:14:03.880Z,7.58
2019-04-04T08:15:04.293Z,7.62
2019-04-04T08:16:03.777Z,7.60
2019-04-04T08:17:03.763Z,7.60
2019-04-04T08:18:04.695Z,7.66
2019-04-04T08:19:03.746Z,7.63
2019-04-04T08:20:04.068Z,7.55
2019-04-04T08:21:05.738Z,7.45
2019-04-04T08:22:04.096Z,7.38
2019-04-04T08:23:03.697Z,7.44
2019-04-04T08:24:03.704Z,7.41
2019-04-04T08:25:03.676Z,7.44
2019-04-04T08:26:03.656Z,7.53
2019-04-04T08:27:03.651Z,7.59
2019-04-04T08:28:03.660Z,7.66
2019-04-04T08:29:03.626Z,7.72
2019-04-04T08:30:03.643Z,7.75
2019-04-04T08:31:03.603Z,7.81
2019-04-04T08:32:03.592Z,7.84
2019-04-04T08:33:04.651Z,7.90
2019-04-04T08:34:03.670Z,7.87
2019-04-04T08:35:03.853Z,7.81
2019-04-04T08:36:06.109Z,7.77
2019-04-04T08:37:03.539Z,7.77
2019-04-04T08:38:03.535Z,7.85
2019-04-04T08:39:03.622Z,7.92
2019-04-04T08:40:03.675Z,7.93
2019-04-04T08:41:03.719Z,7.96
2019-04-04T08:42:04.170Z,8.03
2019-04-04T08:43:04.081Z,8.07
2019-04-04T08:44:03.473Z,8.11
2019-04-04T08:45:03.485Z,8.12
2019-04-04T08:46:03.461Z,8.12
2019-04-04T08:47:03.792Z,8.11
2019-04-04T08:48:03.554Z,8.17
2019-04-04T08:49:03.433Z,8.25
2019-04-04T08:50:03.410Z,8.30
2019-04-04T08:51:04.448Z,8.35
2019-04-04T08:52:15.878Z,8.39
2019-04-04T08:53:04.429Z,8.47
2019-04-04T08:54:03.371Z,8.51
2019-04-04T08:55:03.484Z,8.50
2019-04-04T08:56:03.825Z,8.54
2019-04-04T08:57:03.629Z,8.57
2019-04-04T08:58:04.597Z,8.53
2019-04-04T08:59:04.109Z,8.45
2019-04-04T09:00:03.724Z,8.44
2019-04-04T09:01:03.830Z,8.37
2019-04-04T09:02:03.285Z,8.30
2019-04-04T09:03:03.940Z,8.22
2019-04-04T09:04:03.476Z,8.10
2019-04-04T09:05:11.776Z,8.00
2019-04-04T09:06:04.240Z,7.94
2019-04-04T09:07:03.346Z,7.90
2019-04-04T09:08:03.978Z,7.84
2019-04-04T09:09:04.769Z,7.79
2019-04-04T09:10:03.189Z,7.81
2019-04-04T09:11:03.259Z,7.87
2019-04-04T09:12:03.568Z,7.87
2019-04-04T09:13:03.199Z,7.89
2019-04-04T09:14:03.217Z,7.89
2019-04-04T09:15:03.977Z,7.89
2019-04-04T09:16:03.414Z,7.87
2019-04-04T09:17:04.067Z,7.85
2019-04-04T09:18:04.107Z,7.87
2019-04-04T09:19:03.880Z,7.82
2019-04-04T09:20:03.176Z,7.82
2019-04-04T09:21:03.438Z,7.87
2019-04-04T09:22:03.078Z,7.89
2019-04-04T09:23:03.097Z,7.89
2019-04-04T09:24:03.887Z,7.85
2019-04-04T09:25:04.166Z,7.82
2019-04-04T09:26:05.700Z,7.79
2019-04-04T09:27:03.877Z,7.79
2019-04-04T09:28:03.886Z,7.82
2019-04-04T09:29:04.418Z,7.84
2019-04-04T09:30:03.514Z,7.85
2019-04-04T09:31:03.712Z,7.87
2019-04-04T09:32:03.567Z,7.84
2019-04-04T09:33:03.938Z,7.82
2019-04-04T09:34:03.226Z,7.82
2019-04-04T09:35:02.967Z,7.81
2019-04-04T09:36:03.008Z,7.82
2019-04-04T09:37:02.925Z,7.79
2019-04-04T09:38:03.361Z,7.74
2019-04-04T09:39:02.914Z,7.67
2019-04-04T09:40:02.893Z,7.67
2019-04-04T09:41:02.905Z,7.72
2019-04-04T09:42:02.864Z,7.67
2019-04-04T09:43:03.016Z,7.69
2019-04-04T09:44:05.813Z,7.67
2019-04-04T09:45:02.995Z,7.67
2019-04-04T09:46:02.839Z,7.67
2019-04-04T09:47:05.603Z,7.69
2019-04-04T09:48:02.795Z,7.74
2019-04-04T09:49:02.787Z,7.78
2019-04-04T09:50:02.792Z,7.79
2019-04-04T09:51:02.773Z,7.84
2019-04-04T09:52:02.755Z,7.85
2019-04-04T09:53:02.773Z,7.87
2019-04-04T09:54:02.732Z,7.85
2019-04-04T09:55:02.744Z,7.90
2019-04-04T09:56:03.673Z,7.85
2019-04-04T09:57:02.721Z,7.96
2019-04-04T09:58:03.443Z,7.96
2019-04-04T09:59:02.960Z,7.92
2019-04-04T10:00:02.777Z,7.93
2019-04-04T10:01:02.669Z,7.90
2019-04-04T10:02:02.985Z,7.90
2019-04-04T10:03:03.183Z,7.93
2019-04-04T10:04:03.201Z,8.00
2019-04-04T10:05:05.862Z,8.11
2019-04-04T10:06:03.499Z,8.21
2019-04-04T10:07:02.600Z,8.30
2019-04-04T10:08:02.879Z,8.33
2019-04-04T10:09:14.963Z,8.40
2019-04-04T10:10:04.225Z,8.50
2019-04-04T10:11:03.827Z,8.48
2019-04-04T10:12:02.890Z,8.47
2019-04-04T10:13:02.795Z,8.47
2019-04-04T10:14:04.143Z,8.37
2019-04-04T10:15:02.797Z,8.36
2019-04-04T10:16:02.675Z,8.35
2019-04-04T10:17:03.647Z,8.35
2019-04-04T10:18:02.601Z,8.30
2019-04-04T10:19:03.040Z,8.29
2019-04-04T10:20:02.463Z,8.29
2019-04-04T10:21:11.843Z,8.33
2019-04-04T10:22:03.725Z,8.42
2019-04-04T10:23:02.744Z,8.44
2019-04-04T10:24:02.459Z,8.44
2019-04-04T10:25:02.409Z,8.45
2019-04-04T10:26:02.485Z,8.50
2019-04-04T10:27:02.439Z,8.45
2019-04-04T10:28:03.669Z,8.44
2019-04-04T10:29:03.004Z,8.47
2019-04-04T10:30:03.560Z,8.50
2019-04-04T10:31:03.468Z,8.62
2019-04-04T10:32:03.199Z,8.73
2019-04-04T10:33:02.680Z,8.73
2019-04-04T10:34:03.202Z,8.76
2019-04-04T10:35:02.718Z,8.83
2019-04-04T10:36:03.677Z,8.90
2019-04-04T10:37:02.285Z,8.91
2019-04-04T10:38:02.269Z,8.87
2019-04-04T10:39:02.410Z,8.87
2019-04-04T10:40:02.783Z,8.83
2019-04-04T10:41:02.240Z,8.93
2019-04-04T10:42:03.021Z,9.04
2019-04-04T10:43:02.990Z,9.12
2019-04-04T10:44:02.206Z,9.20
2019-04-04T10:45:03.345Z,9.21
2019-04-04T10:46:03.126Z,9.31
2019-04-04T10:47:03.069Z,9.45
2019-04-04T10:48:02.504Z,9.52
2019-04-04T10:49:02.167Z,9.63
2019-04-04T10:50:02.336Z,9.66
2019-04-04T10:51:02.136Z,9.64
2019-04-04T10:52:03.127Z,9.57
2019-04-04T10:53:02.828Z,9.56
2019-04-04T10:54:02.104Z,9.57
2019-04-04T10:55:02.397Z,9.60
2019-04-04T10:56:02.625Z,9.60
2019-04-04T10:57:02.199Z,9.63
2019-04-04T10:58:02.420Z,9.70
2019-04-04T10:59:02.607Z,9.78
2019-04-04T11:00:03.326Z,9.79
2019-04-04T11:01:02.067Z,9.79
2019-04-04T11:02:02.083Z,9.73
2019-04-04T11:03:02.061Z,9.73
2019-04-04T11:04:02.074Z,9.71
2019-04-04T11:05:02.053Z,9.70
2019-04-04T11:06:03.462Z,9.68
2019-04-04T11:07:02.008Z,9.64
2019-04-04T11:08:02.723Z,9.64
2019-04-04T11:09:02.044Z,9.57
2019-04-04T11:10:03.018Z,9.52
2019-04-04T11:11:01.934Z,9.45
2019-04-04T11:12:01.928Z,9.40
2019-04-04T11:13:02.969Z,9.28
2019-04-04T11:14:02.436Z,9.12
2019-04-04T11:15:02.689Z,9.04
2019-04-04T11:16:03.211Z,9.05
2019-04-04T11:17:02.042Z,9.04
2019-04-04T11:18:02.494Z,8.88
2019-04-04T11:19:02.396Z,8.84
2019-04-04T11:20:04.511Z,8.79
2019-04-04T11:21:03.883Z,8.69
2019-04-04T11:22:02.445Z,8.65
2019-04-04T11:23:03.527Z,8.60
2019-04-04T11:24:02.471Z,8.63
2019-04-04T11:25:02.662Z,8.62
2019-04-04T11:26:04.829Z,8.63
2019-04-04T11:27:04.590Z,8.63
2019-04-04T11:28:03.140Z,8.69
2019-04-04T11:29:04.806Z,8.68
2019-04-04T11:30:09.139Z,8.58
2019-04-04T11:31:04.423Z,8.55
2019-04-04T11:32:03.172Z,8.50
2019-04-04T11:33:03.005Z,8.45
2019-04-04T11:34:05.966Z,8.50
2019-04-04T11:35:02.441Z,8.51
2019-04-04T11:36:02.666Z,8.50
2019-04-04T11:37:02.031Z,8.51
2019-04-04T11:38:01.692Z,8.50
2019-04-04T11:39:01.647Z,8.55
2019-04-04T11:40:02.195Z,8.65
2019-04-04T11:41:02.720Z,8.71
2019-04-04T11:42:03.140Z,8.78
2019-04-04T11:43:01.795Z,8.84
2019-04-04T11:44:01.945Z,8.87
2019-04-04T11:45:01.977Z,8.90
2019-04-04T11:46:01.627Z,8.93
2019-04-04T11:47:02.727Z,8.93
2019-04-04T11:48:01.547Z,8.93
2019-04-04T11:49:01.561Z,8.87
2019-04-04T11:50:02.812Z,8.81
2019-04-04T11:51:03.232Z,8.83
2019-04-04T11:52:03.735Z,8.84
2019-04-04T11:53:01.510Z,8.90
2019-04-04T11:54:04.478Z,8.93
2019-04-04T11:55:03.583Z,8.94
2019-04-04T11:56:02.843Z,8.96
2019-04-04T11:57:02.160Z,8.90
2019-04-04T11:58:06.924Z,8.75
2019-04-04T11:59:03.776Z,8.65
2019-04-04T12:00:02.343Z,8.54
2019-04-04T12:01:01.881Z,8.51
2019-04-04T12:02:01.387Z,8.44
2019-04-04T12:03:01.379Z,8.47
2019-04-04T12:04:03.017Z,8.47
2019-04-04T12:05:02.260Z,8.51
2019-04-04T12:06:02.229Z,8.60
2019-04-04T12:07:01.334Z,8.65
2019-04-04T12:08:01.318Z,8.72
2019-04-04T12:09:02.582Z,8.81
2019-04-04T12:10:07.848Z,8.86
2019-04-04T12:11:02.429Z,8.88
2019-04-04T12:12:01.598Z,8.86
2019-04-04T12:13:01.544Z,8.78
2019-04-04T12:14:02.891Z,8.76
2019-04-04T12:15:01.558Z,8.81
2019-04-04T12:16:02.346Z,8.87
2019-04-04T12:17:01.237Z,8.91
2019-04-04T12:18:01.305Z,8.84
2019-04-04T12:19:01.474Z,8.72
2019-04-04T12:20:01.214Z,8.71
2019-04-04T12:21:01.486Z,8.69
2019-04-04T12:22:01.367Z,8.68
2019-04-04T12:23:02.416Z,8.60
2019-04-04T12:24:01.339Z,8.55
2019-04-04T12:25:01.395Z,8.53
2019-04-04T12:26:01.967Z,8.50
2019-04-04T12:27:01.538Z,8.48
2019-04-04T12:28:03.267Z,8.44
2019-04-04T12:29:01.525Z,8.40
2019-04-04T12:30:01.507Z,8.45
2019-04-04T12:31:01.626Z,8.48
2019-04-04T12:32:01.076Z,8.57
2019-04-04T12:33:01.626Z,8.63
2019-04-04T12:34:02.192Z,8.65
2019-04-04T12:35:01.047Z,8.68
2019-04-04T12:36:01.032Z,8.78
2019-04-04T12:37:01.017Z,8.79
2019-04-04T12:38:01.642Z,8.73
2019-04-04T12:39:01.003Z,8.75
2019-04-04T12:40:01.612Z,8.81
2019-04-04T12:41:00.978Z,8.90
2019-04-04T12:42:01.138Z,8.93
2019-04-04T12:43:00.987Z,8.99
2019-04-04T12:44:02.381Z,9.05
2019-04-04T12:45:05.334Z,9.10
2019-04-04T12:46:01.679Z,9.15
2019-04-04T12:47:01.555Z,9.20
2019-04-04T12:48:00.967Z,9.25
2019-04-04T12:49:01.005Z,9.31
2019-04-04T12:50:01.319Z,9.32
2019-04-04T12:51:01.444Z,9.32
2019-04-04T12:52:01.670Z,9.32
2019-04-04T12:53:01.091Z,9.31
2019-04-04T12:54:00.850Z,9.38
2019-04-04T12:55:00.832Z,9.39
2019-04-04T12:56:01.748Z,9.40
2019-04-04T12:57:01.143Z,9.42
2019-04-04T12:58:00.865Z,9.45
2019-04-04T12:59:00.939Z,9.43
2019-04-04T13:00:01.115Z,9.45
2019-04-04T13:01:01.053Z,9.40
2019-04-04T13:02:01.032Z,9.38
2019-04-04T13:03:00.902Z,9.39
2019-04-04T13:04:02.571Z,9.43
2019-04-04T13:05:00.724Z,9.45
2019-04-04T13:06:00.764Z,9.46
2019-04-04T13:07:00.756Z,9.45
2019-04-04T13:08:00.754Z,9.40
2019-04-04T13:09:00.694Z,9.40
2019-04-04T13:10:10.836Z,9.38
2019-04-04T13:11:01.683Z,9.40
2019-04-04T13:12:00.693Z,9.45
2019-04-04T13:13:00.880Z,9.50
2019-04-04T13:14:00.900Z,9.42
2019-04-04T13:15:00.636Z,9.39
2019-04-04T13:16:01.679Z,9.35
2019-04-04T13:17:00.640Z,9.35
2019-04-04T13:18:00.602Z,9.38
2019-04-04T13:19:00.581Z,9.39
2019-04-04T13:20:00.600Z,9.43